Data Viewer
| City | State | Eastern Time | Source | Temp | DewPt | RH | BP | 5 Min Precip | Wind Speed | Wind Dir | 5 Min Wind Max | 5 Min Wind Max Dir |
|---|---|---|---|---|---|---|---|---|---|---|---|---|
| Chester Springs | PA | 2026-05-09 08:45 | DEOS | 57 | 50 | 77 | 29.91 | 0.00 | 3 | SSW | 6 | |
| Chester Springs | PA | 2026-05-10 00:00 | DEOS | 48 | 47 | 98 | 29.88 | 0.00 | 0 | S | 1 | |
| Chester Springs | PA | 2026-05-09 23:15 | DEOS | 49 | 48 | 98 | 29.89 | 0.00 | 0 | N | 0 | |
| Chester Springs | PA | 2026-05-09 23:20 | DEOS | 49 | 48 | 98 | 29.88 | 0.00 | 1 | S | 1 | |
| Chester Springs | PA | 2026-05-09 23:25 | DEOS | 48 | 48 | 98 | 29.90 | 0.00 | 0 | S | 1 | |
| Chester Springs | PA | 2026-05-09 23:30 | DEOS | 48 | 48 | 98 | 29.88 | 0.00 | 0 | N | 0 | |
| Chester Springs | PA | 2026-05-09 23:35 | DEOS | 48 | 48 | 98 | 29.88 | 0.00 | 1 | S | 2 | |
| Chester Springs | PA | 2026-05-09 23:40 | DEOS | 48 | 47 | 98 | 29.90 | 0.00 | 1 | SSW | 2 | |
| Chester Springs | PA | 2026-05-09 23:45 | DEOS | 48 | 47 | 98 | 29.88 | 0.00 | 1 | S | 2 | |
| Chester Springs | PA | 2026-05-09 23:50 | DEOS | 48 | 47 | 98 | 29.88 | 0.00 | 1 | S | 1 | |
| Chester Springs | PA | 2026-05-09 23:55 | DEOS | 48 | 47 | 98 | 29.90 | 0.00 | 0 | S | 1 | |
| Chester Springs | PA | 2026-05-10 00:05 | DEOS | 47 | 47 | 98 | 29.90 | 0.00 | 1 | S | 2 | |
| Chester Springs | PA | 2026-05-09 23:05 | DEOS | 49 | 48 | 98 | 29.87 | 0.00 | 0 | S | 1 | |
| Chester Springs | PA | 2026-05-10 00:10 | DEOS | 47 | 47 | 98 | 29.88 | 0.00 | 0 | S | 1 | |
| Chester Springs | PA | 2026-05-10 00:15 | DEOS | 47 | 47 | 98 | 29.88 | 0.00 | 0 | N | 0 | |
| Chester Springs | PA | 2026-05-10 00:20 | DEOS | 47 | 47 | 98 | 29.88 | 0.00 | 1 | S | 2 | |
| Chester Springs | PA | 2026-05-10 00:25 | DEOS | 47 | 47 | 98 | 29.90 | 0.00 | 0 | S | 1 | |
| Chester Springs | PA | 2026-05-10 00:30 | DEOS | 47 | 47 | 98 | 29.90 | 0.00 | 0 | N | 0 | |
| Chester Springs | PA | 2026-05-10 00:35 | DEOS | 47 | 47 | 98 | 29.88 | 0.00 | 0 | N | 0 | |
| Chester Springs | PA | 2026-05-10 00:40 | DEOS | 47 | 47 | 98 | 29.88 | 0.00 | 0 | S | 1 | |
| Chester Springs | PA | 2026-05-10 00:45 | DEOS | 47 | 47 | 98 | 29.89 | 0.00 | 0 | N | 0 | |
| Chester Springs | PA | 2026-05-10 00:50 | DEOS | 47 | 47 | 98 | 29.88 | 0.00 | 0 | N | 0 | |
| Chester Springs | PA | 2026-05-09 23:10 | DEOS | 49 | 48 | 98 | 29.89 | 0.00 | 0 | S | 1 | |
| Chester Springs | PA | 2026-05-09 23:00 | DEOS | 49 | 49 | 98 | 29.87 | 0.00 | 1 | SW | 2 | |
| Chester Springs | PA | 2026-05-10 04:45 | DEOS | 49 | 99 | 29.89 | 0.00 | 0 | S | 2 | ||
| Chester Springs | PA | 2026-05-09 21:50 | DEOS | 51 | 50 | 97 | 29.86 | 0.00 | 0 | SSW | 1 | |
| Chester Springs | PA | 2026-05-09 20:55 | DEOS | 53 | 52 | 96 | 29.86 | 0.00 | 0 | SSW | 1 | |
| Chester Springs | PA | 2026-05-09 21:00 | DEOS | 53 | 52 | 96 | 29.86 | 0.00 | 0 | N | 0 | |
| Chester Springs | PA | 2026-05-09 21:05 | DEOS | 52 | 51 | 96 | 29.87 | 0.00 | 0 | N | 0 | |
| Chester Springs | PA | 2026-05-09 21:10 | DEOS | 52 | 51 | 97 | 29.87 | 0.00 | 0 | N | 0 | |
| Chester Springs | PA | 2026-05-09 21:15 | DEOS | 52 | 51 | 97 | 29.86 | 0.00 | 0 | SSW | 1 | |
| Chester Springs | PA | 2026-05-09 21:20 | DEOS | 52 | 51 | 97 | 29.88 | 0.00 | 1 | SSW | 1 | |
| Chester Springs | PA | 2026-05-09 21:25 | DEOS | 51 | 51 | 97 | 29.86 | 0.00 | 0 | SSW | 1 | |
| Chester Springs | PA | 2026-05-09 21:30 | DEOS | 51 | 51 | 97 | 29.86 | 0.00 | 1 | SSW | 1 | |
| Chester Springs | PA | 2026-05-09 21:45 | DEOS | 51 | 50 | 97 | 29.88 | 0.00 | 1 | SSW | 2 | |
| Chester Springs | PA | 2026-05-09 21:55 | DEOS | 51 | 50 | 97 | 29.86 | 0.00 | 0 | SSW | 1 | |
| Chester Springs | PA | 2026-05-09 22:55 | DEOS | 49 | 49 | 98 | 29.87 | 0.00 | 0 | NNW | 2 | |
| Chester Springs | PA | 2026-05-09 22:00 | DEOS | 50 | 50 | 97 | 29.88 | 0.00 | 1 | SSW | 2 | |
| Chester Springs | PA | 2026-05-09 22:05 | DEOS | 50 | 49 | 97 | 29.87 | 0.00 | 0 | SSW | 1 | |
| Chester Springs | PA | 2026-05-09 22:10 | DEOS | 50 | 49 | 98 | 29.88 | 0.00 | 0 | N | 0 | |
| Chester Springs | PA | 2026-05-09 22:15 | DEOS | 50 | 49 | 98 | 29.87 | 0.00 | 0 | SSW | 1 | |
| Chester Springs | PA | 2026-05-09 22:20 | DEOS | 50 | 49 | 97 | 29.87 | 0.00 | 1 | SSW | 1 | |
| Chester Springs | PA | 2026-05-09 22:25 | DEOS | 50 | 49 | 98 | 29.87 | 0.00 | 1 | SSW | 1 | |
| Chester Springs | PA | 2026-05-09 22:30 | DEOS | 50 | 49 | 98 | 29.87 | 0.00 | 0 | SSW | 0 | |
| Chester Springs | PA | 2026-05-09 22:35 | DEOS | 50 | 49 | 98 | 29.87 | 0.00 | 0 | N | 0 | |
| Chester Springs | PA | 2026-05-09 22:40 | DEOS | 50 | 49 | 98 | 29.87 | 0.00 | 0 | N | 0 | |
| Chester Springs | PA | 2026-05-10 00:55 | DEOS | 47 | 47 | 98 | 29.88 | 0.00 | 0 | N | 0 | |
| Chester Springs | PA | 2026-05-10 04:50 | DEOS | 49 | 49 | 99 | 29.92 | 0.00 | 2 | SSE | 3 | |
| Chester Springs | PA | 2026-05-09 20:45 | DEOS | 53 | 52 | 96 | 29.85 | 0.00 | 1 | SSW | 1 | |
| Chester Springs | PA | 2026-05-10 07:50 | DEOS | 51 | 51 | 99 | 29.92 | 0.00 | 0 | N | 0 | |
| Chester Springs | PA | 2026-05-10 07:05 | DEOS | 51 | 51 | 99 | 29.91 | 0.00 | 1 | SSW | 2 | |
| Chester Springs | PA | 2026-05-10 07:10 | DEOS | 51 | 51 | 99 | 29.93 | 0.00 | 0 | SE | 1 | |
| Chester Springs | PA | 2026-05-10 07:15 | DEOS | 51 | 51 | 99 | 29.94 | 0.00 | 1 | SSW | 2 | |
| Chester Springs | PA | 2026-05-10 07:20 | DEOS | 51 | 51 | 99 | 29.94 | 0.00 | 3 | S | 5 | |
| Chester Springs | PA | 2026-05-10 07:25 | DEOS | 51 | 51 | 99 | 29.91 | 0.00 | 0 | SW | 3 | |
| Chester Springs | PA | 2026-05-10 07:30 | DEOS | 51 | 51 | 99 | 29.93 | 0.00 | 1 | SSW | 2 | |
| Chester Springs | PA | 2026-05-10 07:35 | DEOS | 51 | 51 | 99 | 29.92 | 0.00 | 1 | W | 2 | |
| Chester Springs | PA | 2026-05-10 07:40 | DEOS | 51 | 51 | 99 | 29.94 | 0.00 | 1 | SSW | 2 | |
| Chester Springs | PA | 2026-05-10 07:45 | DEOS | 51 | 51 | 99 | 29.92 | 0.00 | 0 | SSW | 1 | |
| Chester Springs | PA | 2026-05-10 07:55 | DEOS | 52 | 52 | 99 | 29.94 | 0.00 | 0 | W | 2 | |
| Chester Springs | PA | 2026-05-10 06:55 | DEOS | 51 | 51 | 99 | 29.91 | 0.00 | 1 | W | 2 | |
| Chester Springs | PA | 2026-05-10 08:00 | DEOS | 52 | 52 | 99 | 29.95 | 0.00 | 0 | SW | 2 | |
| Chester Springs | PA | 2026-05-10 08:05 | DEOS | 52 | 52 | 99 | 29.93 | 0.00 | 1 | N | 2 | |
| Chester Springs | PA | 2026-05-10 08:10 | DEOS | 52 | 52 | 99 | 29.93 | 0.00 | 2 | N | 3 | |
| Chester Springs | PA | 2026-05-10 08:15 | DEOS | 52 | 52 | 99 | 29.95 | 0.00 | 2 | NNW | 3 | |
| Chester Springs | PA | 2026-05-10 08:20 | DEOS | 52 | 52 | 99 | 29.94 | 0.00 | 2 | NNW | 3 | |
| Chester Springs | PA | 2026-05-10 08:25 | DEOS | 53 | 52 | 99 | 29.96 | 0.00 | 1 | W | 4 | |
| Chester Springs | PA | 2026-05-10 08:30 | DEOS | 53 | 53 | 99 | 29.95 | 0.00 | 0 | WNW | 2 | |
| Chester Springs | PA | 2026-05-10 08:35 | DEOS | 53 | 53 | 99 | 29.95 | 0.00 | 0 | E | 1 | |
| Chester Springs | PA | 2026-05-10 08:40 | DEOS | 53 | 53 | 99 | 29.97 | 0.00 | 1 | NNE | 2 | |
| Chester Springs | PA | 2026-05-10 07:00 | DEOS | 51 | 51 | 99 | 29.93 | 0.00 | 1 | WNW | 2 | |
| Chester Springs | PA | 2026-05-10 06:50 | DEOS | 51 | 50 | 99 | 29.93 | 0.00 | 0 | SSW | 2 | |
| Chester Springs | PA | 2026-05-10 04:55 | DEOS | 49 | 49 | 99 | 29.91 | 0.00 | 1 | S | 2 | |
| Chester Springs | PA | 2026-05-10 05:45 | DEOS | 50 | 49 | 99 | 29.92 | 0.00 | 1 | NNW | 2 | |
| Chester Springs | PA | 2026-05-10 05:00 | DEOS | 49 | 49 | 99 | 29.89 | 0.00 | 1 | SW | 2 | |
| Chester Springs | PA | 2026-05-10 05:05 | DEOS | 49 | 49 | 99 | 29.91 | 0.00 | 2 | S | 3 | |
| Chester Springs | PA | 2026-05-10 05:10 | DEOS | 49 | 49 | 99 | 29.91 | 0.00 | 2 | W | 3 | |
| Chester Springs | PA | 2026-05-10 05:15 | DEOS | 50 | 49 | 99 | 29.89 | 0.00 | 1 | NE | 2 | |
| Chester Springs | PA | 2026-05-10 05:20 | DEOS | 50 | 50 | 99 | 29.89 | 0.00 | 0 | ESE | 1 | |
| Chester Springs | PA | 2026-05-10 05:25 | DEOS | 50 | 50 | 99 | 29.91 | 0.00 | 0 | SE | 1 | |
| Chester Springs | PA | 2026-05-10 05:30 | DEOS | 50 | 50 | 99 | 29.89 | 0.00 | 1 | SSE | 1 | |
| Chester Springs | PA | 2026-05-10 05:35 | DEOS | 50 | 50 | 99 | 29.89 | 0.00 | 1 | SSW | 2 | |
| Chester Springs | PA | 2026-05-10 05:40 | DEOS | 50 | 50 | 99 | 29.89 | 0.00 | 1 | W | 2 | |
| Chester Springs | PA | 2026-05-10 05:50 | DEOS | 50 | 49 | 99 | 29.89 | 0.00 | 1 | ENE | 2 | |
| Chester Springs | PA | 2026-05-10 06:45 | DEOS | 51 | 50 | 99 | 29.92 | 0.00 | 1 | SSE | 2 | |
| Chester Springs | PA | 2026-05-10 05:55 | DEOS | 50 | 49 | 99 | 29.91 | 0.00 | 0 | SSE | 1 | |
| Chester Springs | PA | 2026-05-10 06:00 | DEOS | 50 | 49 | 99 | 29.89 | 0.00 | 2 | NW | 2 | |
| Chester Springs | PA | 2026-05-10 06:05 | DEOS | 50 | 49 | 99 | 29.89 | 0.00 | 1 | NNW | 2 | |
| Chester Springs | PA | 2026-05-10 06:10 | DEOS | 50 | 49 | 99 | 29.90 | 0.00 | 0 | WNW | 2 | |
| Chester Springs | PA | 2026-05-10 06:15 | DEOS | 50 | 50 | 99 | 29.90 | 0.00 | 0 | WNW | 0 | |
| Chester Springs | PA | 2026-05-10 06:20 | DEOS | 50 | 50 | 99 | 29.90 | 0.00 | 0 | WNW | 1 | |
| Chester Springs | PA | 2026-05-10 06:25 | DEOS | 50 | 50 | 99 | 29.90 | 0.00 | 1 | NNW | 2 | |
| Chester Springs | PA | 2026-05-10 06:30 | DEOS | 50 | 50 | 99 | 29.91 | 0.00 | 1 | NNW | 2 | |
| Chester Springs | PA | 2026-05-10 06:35 | DEOS | 50 | 50 | 99 | 29.91 | 0.00 | 1 | NNW | 3 | |
| Chester Springs | PA | 2026-05-10 06:40 | DEOS | 51 | 50 | 99 | 29.92 | 0.00 | 0 | W | 1 | |
| Chester Springs | PA | 2026-05-09 20:50 | DEOS | 53 | 52 | 96 | 29.86 | 0.00 | 1 | SSW | 1 | |
| Chester Springs | PA | 2026-05-09 20:40 | DEOS | 54 | 52 | 96 | 29.86 | 0.00 | 0 | N | 0 | |
| Chester Springs | PA | 2026-05-09 08:50 | DEOS | 57 | 50 | 76 | 29.90 | 0.00 | 4 | SSW | 8 | |
| Chester Springs | PA | 2026-05-09 12:05 | DEOS | 57 | 53 | 85 | 29.93 | 0.00 | 2 | S | 4 | |
| Chester Springs | PA | 2026-05-09 11:20 | DEOS | 59 | 53 | 80 | 29.93 | 0.00 | 3 | WSW | 8 | |
| Chester Springs | PA | 2026-05-09 11:25 | DEOS | 59 | 53 | 81 | 29.93 | 0.00 | 3 | SSW | 8 | |
| Chester Springs | PA | 2026-05-09 11:30 | DEOS | 58 | 53 | 81 | 29.93 | 0.00 | 2 | SW | 6 | |
| Chester Springs | PA | 2026-05-09 11:35 | DEOS | 58 | 52 | 81 | 29.93 | 0.00 | 2 | WSW | 6 | |
| Chester Springs | PA | 2026-05-09 11:40 | DEOS | 58 | 53 | 82 | 29.93 | 0.00 | 2 | WSW | 6 | |
| Chester Springs | PA | 2026-05-09 11:45 | DEOS | 58 | 53 | 82 | 29.92 | 0.01 | 2 | SSW | 4 | |
| Chester Springs | PA | 2026-05-09 11:50 | DEOS | 58 | 53 | 83 | 29.92 | 0.00 | 1 | SW | 4 | |
| Chester Springs | PA | 2026-05-09 11:55 | DEOS | 57 | 52 | 83 | 29.93 | 0.00 | 2 | SSW | 4 | |
| Chester Springs | PA | 2026-05-09 12:00 | DEOS | 57 | 52 | 84 | 29.93 | 0.01 | 3 | S | 6 | |
| Chester Springs | PA | 2026-05-09 12:10 | DEOS | 57 | 52 | 85 | 29.91 | 0.01 | 1 | SSW | 3 | |
| Chester Springs | PA | 2026-05-09 11:10 | DEOS | 59 | 53 | 79 | 29.92 | 0.00 | 2 | WNW | 4 | |
| Chester Springs | PA | 2026-05-09 12:15 | DEOS | 57 | 52 | 84 | 29.91 | 0.00 | 1 | SW | 2 | |
| Chester Springs | PA | 2026-05-09 12:20 | DEOS | 57 | 52 | 85 | 29.91 | 0.01 | 1 | SSW | 2 | |
| Chester Springs | PA | 2026-05-09 12:25 | DEOS | 57 | 53 | 87 | 29.91 | 0.01 | 1 | SW | 3 | |
| Chester Springs | PA | 2026-05-09 12:45 | DEOS | 56 | 51 | 84 | 29.90 | 0.00 | 1 | WSW | 2 | |
| Chester Springs | PA | 2026-05-09 12:50 | DEOS | 56 | 51 | 83 | 29.89 | 0.00 | 1 | W | 2 | |
| Chester Springs | PA | 2026-05-09 12:55 | DEOS | 56 | 52 | 84 | 29.90 | 0.00 | 0 | SSW | 1 | |
| Chester Springs | PA | 2026-05-09 13:00 | DEOS | 56 | 52 | 86 | 29.90 | 0.01 | 0 | NW | 1 | |
| Chester Springs | PA | 2026-05-09 13:05 | DEOS | 56 | 52 | 87 | 29.90 | 0.00 | 2 | WNW | 4 | |
| Chester Springs | PA | 2026-05-09 13:10 | DEOS | 56 | 52 | 87 | 29.90 | 0.00 | 2 | WNW | 4 | |
| Chester Springs | PA | 2026-05-09 11:15 | DEOS | 59 | 54 | 81 | 29.92 | 0.01 | 3 | SSW | 6 | |
| Chester Springs | PA | 2026-05-09 11:05 | DEOS | 59 | 53 | 78 | 29.92 | 0.00 | 4 | SW | 7 | |
| Chester Springs | PA | 2026-05-09 13:20 | DEOS | 55 | 52 | 88 | 29.91 | 0.00 | 1 | NW | 3 | |
| Chester Springs | PA | 2026-05-09 09:50 | DEOS | 58 | 51 | 75 | 29.90 | 0.00 | 4 | SSW | 8 | |
| Chester Springs | PA | 2026-05-09 08:55 | DEOS | 57 | 50 | 76 | 29.91 | 0.00 | 2 | S | 6 | |
| Chester Springs | PA | 2026-05-09 09:00 | DEOS | 58 | 50 | 76 | 29.91 | 0.00 | 4 | S | 7 | |
| Chester Springs | PA | 2026-05-09 09:05 | DEOS | 58 | 50 | 75 | 29.90 | 0.00 | 4 | SSE | 8 | |
| Chester Springs | PA | 2026-05-09 09:10 | DEOS | 58 | 50 | 75 | 29.90 | 0.00 | 5 | S | 10 | |
| Chester Springs | PA | 2026-05-09 09:15 | DEOS | 58 | 50 | 75 | 29.89 | 0.00 | 5 | S | 9 | |
| Chester Springs | PA | 2026-05-09 09:20 | DEOS | 58 | 50 | 75 | 29.90 | 0.00 | 4 | SW | 9 | |
| Chester Springs | PA | 2026-05-09 09:25 | DEOS | 58 | 50 | 75 | 29.91 | 0.00 | 5 | S | 8 | |
| Chester Springs | PA | 2026-05-09 09:40 | DEOS | 58 | 50 | 75 | 29.91 | 0.00 | 4 | SSW | 11 | |
| Chester Springs | PA | 2026-05-09 09:45 | DEOS | 58 | 51 | 75 | 29.91 | 0.00 | 4 | SSW | 7 | |
| Chester Springs | PA | 2026-05-09 09:55 | DEOS | 59 | 51 | 74 | 29.91 | 0.00 | 4 | S | 6 | |
| Chester Springs | PA | 2026-05-09 10:50 | DEOS | 60 | 52 | 75 | 29.91 | 0.00 | 3 | SSW | 9 | |
| Chester Springs | PA | 2026-05-09 10:00 | DEOS | 59 | 50 | 74 | 29.91 | 0.00 | 4 | S | 9 | |
| Chester Springs | PA | 2026-05-09 10:05 | DEOS | 59 | 51 | 74 | 29.91 | 0.00 | 4 | SSW | 6 | |
| Chester Springs | PA | 2026-05-09 10:10 | DEOS | 59 | 51 | 74 | 29.91 | 0.00 | 3 | SW | 9 | |
| Chester Springs | PA | 2026-05-09 10:15 | DEOS | 59 | 51 | 73 | 29.91 | 0.00 | 3 | S | 6 | |
| Chester Springs | PA | 2026-05-09 10:20 | DEOS | 59 | 51 | 73 | 29.90 | 0.00 | 3 | SSW | 6 | |
| Chester Springs | PA | 2026-05-09 10:25 | DEOS | 59 | 51 | 73 | 29.92 | 0.00 | 4 | SSW | 9 | |
| Chester Springs | PA | 2026-05-09 10:30 | DEOS | 60 | 51 | 73 | 29.92 | 0.00 | 3 | SSW | 8 | |
| Chester Springs | PA | 2026-05-09 10:35 | DEOS | 60 | 51 | 74 | 29.92 | 0.00 | 2 | SSW | 5 | |
| Chester Springs | PA | 2026-05-09 10:40 | DEOS | 60 | 51 | 73 | 29.92 | 0.00 | 2 | SW | 9 | |
| Chester Springs | PA | 2026-05-09 10:45 | DEOS | 60 | 51 | 73 | 29.91 | 0.00 | 3 | SW | 9 | |
| Chester Springs | PA | 2026-05-09 13:15 | DEOS | 55 | 52 | 87 | 29.90 | 0.01 | 2 | WNW | 3 | |
| Chester Springs | PA | 2026-05-09 13:25 | DEOS | 55 | 52 | 89 | 29.92 | 0.00 | 2 | NW | 5 | |
| Chester Springs | PA | 2026-05-09 20:35 | DEOS | 54 | 53 | 96 | 29.86 | 0.00 | 0 | N | 0 | |
| Chester Springs | PA | 2026-05-09 16:55 | DEOS | 57 | 53 | 89 | 29.86 | 0.00 | 1 | NE | 3 | |
| Chester Springs | PA | 2026-05-09 16:00 | DEOS | 55 | 53 | 93 | 29.86 | 0.01 | 3 | NE | 4 | |
| Chester Springs | PA | 2026-05-09 16:05 | DEOS | 55 | 53 | 93 | 29.86 | 0.00 | 3 | NNE | 4 | |
| Chester Springs | PA | 2026-05-09 16:20 | DEOS | 56 | 54 | 92 | 29.86 | 0.00 | 2 | NNE | 4 | |
| Chester Springs | PA | 2026-05-09 16:25 | DEOS | 57 | 54 | 92 | 29.87 | 0.01 | 2 | NNE | 4 | |
| Chester Springs | PA | 2026-05-09 16:30 | DEOS | 57 | 54 | 91 | 29.87 | 0.00 | 2 | N | 3 | |
| Chester Springs | PA | 2026-05-09 16:35 | DEOS | 57 | 54 | 90 | 29.85 | 0.00 | 2 | NE | 4 | |
| Chester Springs | PA | 2026-05-09 16:40 | DEOS | 57 | 54 | 90 | 29.87 | 0.00 | 1 | NE | 4 | |
| Chester Springs | PA | 2026-05-09 16:45 | DEOS | 57 | 54 | 90 | 29.86 | 0.00 | 2 | NE | 3 | |
| Chester Springs | PA | 2026-05-09 16:50 | DEOS | 57 | 54 | 89 | 29.87 | 0.00 | 2 | NNE | 4 | |
| Chester Springs | PA | 2026-05-09 17:00 | DEOS | 57 | 54 | 89 | 29.86 | 0.00 | 1 | NE | 4 | |
| Chester Springs | PA | 2026-05-09 15:50 | DEOS | 55 | 53 | 93 | 29.86 | 0.01 | 2 | NNE | 4 | |
| Chester Springs | PA | 2026-05-09 17:05 | DEOS | 57 | 54 | 89 | 29.86 | 0.00 | 1 | NNE | 3 | |
| Chester Springs | PA | 2026-05-09 17:10 | DEOS | 57 | 54 | 89 | 29.86 | 0.00 | 1 | NE | 2 | |
| Chester Springs | PA | 2026-05-09 17:15 | DEOS | 57 | 54 | 90 | 29.85 | 0.00 | 1 | ENE | 3 | |
| Chester Springs | PA | 2026-05-09 17:20 | DEOS | 57 | 54 | 91 | 29.86 | 0.00 | 0 | E | 2 | |
| Chester Springs | PA | 2026-05-09 17:25 | DEOS | 57 | 54 | 91 | 29.86 | 0.00 | 0 | SSE | 2 | |
| Chester Springs | PA | 2026-05-09 20:15 | DEOS | 55 | 53 | 94 | 29.86 | 0.00 | 1 | SSW | 2 | |
| Chester Springs | PA | 2026-05-09 20:20 | DEOS | 54 | 53 | 95 | 29.85 | 0.00 | 2 | S | 2 | |
| Chester Springs | PA | 2026-05-09 20:25 | DEOS | 54 | 53 | 95 | 29.86 | 0.00 | 0 | SSW | 1 | |
| Chester Springs | PA | 2026-05-09 20:30 | DEOS | 54 | 53 | 95 | 29.86 | 0.00 | 0 | N | 0 | |
| Chester Springs | PA | 2026-05-09 15:55 | DEOS | 55 | 53 | 93 | 29.86 | 0.01 | 2 | NNE | 5 | |
| Chester Springs | PA | 2026-05-09 15:45 | DEOS | 56 | 54 | 93 | 29.87 | 0.00 | 3 | NE | 5 | |
| Chester Springs | PA | 2026-05-09 13:30 | DEOS | 55 | 52 | 89 | 29.91 | 0.00 | 2 | NW | 4 | |
| Chester Springs | PA | 2026-05-09 14:30 | DEOS | 56 | 54 | 92 | 29.90 | 0.00 | 2 | N | 4 | |
| Chester Springs | PA | 2026-05-09 13:35 | DEOS | 55 | 52 | 89 | 29.91 | 0.01 | 1 | WNW | 4 | |
| Chester Springs | PA | 2026-05-09 13:40 | DEOS | 55 | 52 | 89 | 29.91 | 0.00 | 1 | NNW | 2 | |
| Chester Springs | PA | 2026-05-09 13:55 | DEOS | 55 | 53 | 91 | 29.91 | 0.00 | 0 | WNW | 2 | |
| Chester Springs | PA | 2026-05-09 14:00 | DEOS | 56 | 53 | 91 | 29.91 | 0.01 | 1 | NW | 2 | |
| Chester Springs | PA | 2026-05-09 14:05 | DEOS | 56 | 53 | 91 | 29.91 | 0.00 | 0 | N | 2 | |
| Chester Springs | PA | 2026-05-09 14:10 | DEOS | 56 | 53 | 91 | 29.90 | 0.01 | 1 | NNW | 2 | |
| Chester Springs | PA | 2026-05-09 14:15 | DEOS | 56 | 53 | 91 | 29.90 | 0.00 | 1 | NW | 2 | |
| Chester Springs | PA | 2026-05-09 14:20 | DEOS | 56 | 53 | 92 | 29.91 | 0.00 | 1 | NNW | 2 | |
| Chester Springs | PA | 2026-05-09 14:25 | DEOS | 56 | 53 | 91 | 29.91 | 0.00 | 1 | NNW | 2 | |
| Chester Springs | PA | 2026-05-09 14:35 | DEOS | 56 | 54 | 92 | 29.90 | 0.00 | 2 | N | 3 | |
| Chester Springs | PA | 2026-05-09 15:40 | DEOS | 56 | 54 | 93 | 29.87 | 0.00 | 2 | NNE | 4 | |
| Chester Springs | PA | 2026-05-09 14:40 | DEOS | 56 | 54 | 92 | 29.90 | 0.00 | 2 | N | 4 | |
| Chester Springs | PA | 2026-05-09 14:45 | DEOS | 55 | 53 | 91 | 29.91 | 0.00 | 3 | N | 4 | |
| Chester Springs | PA | 2026-05-09 14:50 | DEOS | 55 | 53 | 91 | 29.89 | 0.00 | 2 | N | 4 | |
| Chester Springs | PA | 2026-05-09 14:55 | DEOS | 55 | 53 | 91 | 29.89 | 0.01 | 2 | N | 3 | |
| Chester Springs | PA | 2026-05-09 15:10 | DEOS | 56 | 53 | 92 | 29.89 | 0.00 | 2 | NNE | 3 | |
| Chester Springs | PA | 2026-05-09 15:15 | DEOS | 56 | 53 | 92 | 29.88 | 0.00 | 2 | NNE | 3 | |
| Chester Springs | PA | 2026-05-09 15:20 | DEOS | 55 | 53 | 92 | 29.89 | 0.00 | 2 | NNE | 4 | |
| Chester Springs | PA | 2026-05-09 15:25 | DEOS | 55 | 53 | 92 | 29.88 | 0.00 | 2 | NNE | 3 | |
| Chester Springs | PA | 2026-05-09 15:30 | DEOS | 56 | 53 | 93 | 29.88 | 0.00 | 2 | NE | 4 | |
| Chester Springs | PA | 2026-05-09 15:35 | DEOS | 56 | 54 | 93 | 29.88 | 0.01 | 2 | NE | 4 | |
| Chester Springs | PA | 2026-05-10 08:45 | DEOS | 54 | 53 | 99 | 29.95 | 0.00 | 2 | N | 3 |
data collection created in 0.037638902664185 (queried in 0.007952) rendered in: 0.00037002563476562

